sensor_id;sensor_type;location;lat;lon;timestamp;P1;durP1;ratioP1;P2;durP2;ratioP2
24873;SDS011;12945;42.648;23.370;2022-08-21T00:00:38;30.13;;;16.13;;
24873;SDS011;12945;42.648;23.370;2022-08-21T00:03:05;25.48;;;15.85;;
24873;SDS011;12945;42.648;23.370;2022-08-21T00:05:31;22.70;;;16.35;;
24873;SDS011;12945;42.648;23.370;2022-08-21T00:07:57;24.23;;;15.50;;
24873;SDS011;12945;42.648;23.370;2022-08-21T00:10:23;23.95;;;15.43;;
24873;SDS011;12945;42.648;23.370;2022-08-21T00:12:49;26.33;;;16.70;;
24873;SDS011;12945;42.648;23.370;2022-08-21T00:15:20;23.35;;;16.33;;
24873;SDS011;12945;42.648;23.370;2022-08-21T00:17:46;24.92;;;16.05;;
24873;SDS011;12945;42.648;23.370;2022-08-21T00:20:13;25.20;;;16.23;;
24873;SDS011;12945;42.648;23.370;2022-08-21T00:22:39;26.25;;;15.13;;
24873;SDS011;12945;42.648;23.370;2022-08-21T00:25:05;24.20;;;14.07;;
24873;SDS011;12945;42.648;23.370;2022-08-21T00:27:31;24.70;;;14.65;;
24873;SDS011;12945;42.648;23.370;2022-08-21T00:29:56;27.55;;;15.48;;
24873;SDS011;12945;42.648;23.370;2022-08-21T00:32:22;25.48;;;13.98;;
24873;SDS011;12945;42.648;23.370;2022-08-21T00:34:48;21.05;;;11.68;;
24873;SDS011;12945;42.648;23.370;2022-08-21T00:37:13;16.48;;;10.73;;
24873;SDS011;12945;42.648;23.370;2022-08-21T00:39:38;14.57;;;7.93;;
24873;SDS011;12945;42.648;23.370;2022-08-21T00:42:03;14.30;;;7.75;;
24873;SDS011;12945;42.648;23.370;2022-08-21T00:44:29;14.95;;;8.63;;
24873;SDS011;12945;42.648;23.370;2022-08-21T00:46:56;14.15;;;7.53;;
24873;SDS011;12945;42.648;23.370;2022-08-21T00:49:22;15.00;;;7.18;;
24873;SDS011;12945;42.648;23.370;2022-08-21T00:51:51;11.52;;;5.43;;
24873;SDS011;12945;42.648;23.370;2022-08-21T00:54:19;9.85;;;5.07;;
24873;SDS011;12945;42.648;23.370;2022-08-21T00:56:50;15.43;;;9.35;;
24873;SDS011;12945;42.648;23.370;2022-08-21T01:01:41;22.15;;;12.60;;
24873;SDS011;12945;42.648;23.370;2022-08-21T01:04:06;22.02;;;13.38;;
24873;SDS011;12945;42.648;23.370;2022-08-21T01:06:32;22.55;;;12.73;;
24873;SDS011;12945;42.648;23.370;2022-08-21T01:08:57;20.73;;;12.57;;
24873;SDS011;12945;42.648;23.370;2022-08-21T01:11:23;21.13;;;11.52;;
24873;SDS011;12945;42.648;23.370;2022-08-21T01:13:48;19.15;;;9.85;;
24873;SDS011;12945;42.648;23.370;2022-08-21T01:16:15;15.02;;;10.35;;
24873;SDS011;12945;42.648;23.370;2022-08-21T01:18:42;19.77;;;11.63;;
24873;SDS011;12945;42.648;23.370;2022-08-21T01:21:16;22.58;;;12.77;;
24873;SDS011;12945;42.648;23.370;2022-08-21T01:23:42;25.20;;;14.27;;
24873;SDS011;12945;42.648;23.370;2022-08-21T01:26:08;28.50;;;16.73;;
24873;SDS011;12945;42.648;23.370;2022-08-21T01:28:35;31.05;;;17.13;;
24873;SDS011;12945;42.648;23.370;2022-08-21T01:31:01;32.83;;;18.35;;
24873;SDS011;12945;42.648;23.370;2022-08-21T01:33:27;30.90;;;17.25;;
24873;SDS011;12945;42.648;23.370;2022-08-21T01:35:53;33.17;;;18.48;;
24873;SDS011;12945;42.648;23.370;2022-08-21T01:38:18;31.10;;;17.52;;
24873;SDS011;12945;42.648;23.370;2022-08-21T01:40:43;35.55;;;20.15;;
24873;SDS011;12945;42.648;23.370;2022-08-21T01:43:09;36.13;;;20.88;;
24873;SDS011;12945;42.648;23.370;2022-08-21T01:45:34;34.30;;;20.27;;
24873;SDS011;12945;42.648;23.370;2022-08-21T01:47:59;39.67;;;20.38;;
24873;SDS011;12945;42.648;23.370;2022-08-21T01:50:25;40.88;;;20.90;;
24873;SDS011;12945;42.648;23.370;2022-08-21T01:52:50;34.22;;;20.52;;
24873;SDS011;12945;42.648;23.370;2022-08-21T01:55:17;33.42;;;20.73;;
24873;SDS011;12945;42.648;23.370;2022-08-21T01:57:43;34.55;;;20.45;;
24873;SDS011;12945;42.648;23.370;2022-08-21T02:00:09;32.28;;;20.05;;
24873;SDS011;12945;42.648;23.370;2022-08-21T02:02:36;34.25;;;20.65;;
24873;SDS011;12945;42.648;23.370;2022-08-21T02:05:01;37.15;;;20.42;;
24873;SDS011;12945;42.648;23.370;2022-08-21T02:07:26;43.00;;;21.15;;
24873;SDS011;12945;42.648;23.370;2022-08-21T02:09:52;35.65;;;18.85;;
24873;SDS011;12945;42.648;23.370;2022-08-21T02:12:17;37.65;;;19.23;;
24873;SDS011;12945;42.648;23.370;2022-08-21T02:14:42;33.45;;;19.80;;
24873;SDS011;12945;42.648;23.370;2022-08-21T02:17:07;33.38;;;19.40;;
24873;SDS011;12945;42.648;23.370;2022-08-21T02:19:33;38.88;;;20.60;;
24873;SDS011;12945;42.648;23.370;2022-08-21T02:21:58;38.30;;;19.45;;
24873;SDS011;12945;42.648;23.370;2022-08-21T02:24:24;38.83;;;18.30;;
24873;SDS011;12945;42.648;23.370;2022-08-21T02:26:49;34.28;;;17.70;;
24873;SDS011;12945;42.648;23.370;2022-08-21T02:29:15;29.73;;;17.83;;
24873;SDS011;12945;42.648;23.370;2022-08-21T02:31:40;28.52;;;16.77;;
24873;SDS011;12945;42.648;23.370;2022-08-21T02:34:05;27.50;;;17.65;;
24873;SDS011;12945;42.648;23.370;2022-08-21T02:36:31;26.35;;;16.83;;
24873;SDS011;12945;42.648;23.370;2022-08-21T02:38:56;27.00;;;17.30;;
24873;SDS011;12945;42.648;23.370;2022-08-21T02:41:22;29.38;;;16.70;;
24873;SDS011;12945;42.648;23.370;2022-08-21T02:43:47;30.83;;;16.67;;
24873;SDS011;12945;42.648;23.370;2022-08-21T02:46:14;29.52;;;15.10;;
24873;SDS011;12945;42.648;23.370;2022-08-21T02:48:40;26.20;;;15.13;;
24873;SDS011;12945;42.648;23.370;2022-08-21T02:51:06;26.95;;;13.75;;
24873;SDS011;12945;42.648;23.370;2022-08-21T02:53:32;26.23;;;13.52;;
24873;SDS011;12945;42.648;23.370;2022-08-21T02:55:59;26.33;;;12.73;;
24873;SDS011;12945;42.648;23.370;2022-08-21T02:58:27;22.77;;;13.35;;
24873;SDS011;12945;42.648;23.370;2022-08-21T03:00:53;28.25;;;12.95;;
24873;SDS011;12945;42.648;23.370;2022-08-21T03:03:19;23.00;;;12.55;;
24873;SDS011;12945;42.648;23.370;2022-08-21T03:05:46;23.65;;;11.80;;
24873;SDS011;12945;42.648;23.370;2022-08-21T03:08:12;20.45;;;10.32;;
24873;SDS011;12945;42.648;23.370;2022-08-21T03:10:38;17.58;;;9.52;;
24873;SDS011;12945;42.648;23.370;2022-08-21T03:13:04;17.63;;;8.15;;
24873;SDS011;12945;42.648;23.370;2022-08-21T03:15:30;15.40;;;7.50;;
24873;SDS011;12945;42.648;23.370;2022-08-21T03:17:55;14.85;;;7.53;;
24873;SDS011;12945;42.648;23.370;2022-08-21T03:20:22;14.35;;;7.13;;
24873;SDS011;12945;42.648;23.370;2022-08-21T03:22:48;18.33;;;7.40;;
24873;SDS011;12945;42.648;23.370;2022-08-21T03:25:14;14.13;;;7.22;;
24873;SDS011;12945;42.648;23.370;2022-08-21T03:27:39;18.70;;;7.00;;
24873;SDS011;12945;42.648;23.370;2022-08-21T03:30:05;17.60;;;6.78;;
24873;SDS011;12945;42.648;23.370;2022-08-21T03:32:31;12.52;;;6.30;;
24873;SDS011;12945;42.648;23.370;2022-08-21T03:34:56;13.82;;;6.20;;
24873;SDS011;12945;42.648;23.370;2022-08-21T03:37:22;11.45;;;6.25;;
24873;SDS011;12945;42.648;23.370;2022-08-21T03:39:48;18.95;;;6.57;;
24873;SDS011;12945;42.648;23.370;2022-08-21T03:42:14;14.48;;;6.60;;
24873;SDS011;12945;42.648;23.370;2022-08-21T03:44:39;14.60;;;6.72;;
24873;SDS011;12945;42.648;23.370;2022-08-21T03:47:04;18.92;;;6.30;;
24873;SDS011;12945;42.648;23.370;2022-08-21T03:49:30;13.23;;;5.32;;
24873;SDS011;12945;42.648;23.370;2022-08-21T03:51:55;11.98;;;5.40;;
24873;SDS011;12945;42.648;23.370;2022-08-21T03:54:20;12.77;;;6.07;;
24873;SDS011;12945;42.648;23.370;2022-08-21T03:56:46;10.40;;;6.07;;
24873;SDS011;12945;42.648;23.370;2022-08-21T03:59:12;16.98;;;6.38;;
24873;SDS011;12945;42.648;23.370;2022-08-21T04:01:38;15.68;;;6.35;;
24873;SDS011;12945;42.648;23.370;2022-08-21T04:04:04;20.77;;;9.57;;
24873;SDS011;12945;42.648;23.370;2022-08-21T04:06:29;19.52;;;9.70;;
24873;SDS011;12945;42.648;23.370;2022-08-21T04:08:54;17.42;;;9.95;;
24873;SDS011;12945;42.648;23.370;2022-08-21T04:11:20;15.95;;;9.73;;
24873;SDS011;12945;42.648;23.370;2022-08-21T04:13:45;16.67;;;9.75;;
24873;SDS011;12945;42.648;23.370;2022-08-21T04:16:11;16.98;;;10.52;;
24873;SDS011;12945;42.648;23.370;2022-08-21T04:18:36;19.65;;;10.73;;
24873;SDS011;12945;42.648;23.370;2022-08-21T04:21:02;19.23;;;10.27;;
24873;SDS011;12945;42.648;23.370;2022-08-21T04:23:28;27.23;;;11.98;;
24873;SDS011;12945;42.648;23.370;2022-08-21T04:25:53;23.98;;;10.35;;
24873;SDS011;12945;42.648;23.370;2022-08-21T04:28:19;21.98;;;10.40;;
24873;SDS011;12945;42.648;23.370;2022-08-21T04:30:45;15.70;;;9.80;;
24873;SDS011;12945;42.648;23.370;2022-08-21T04:33:10;17.27;;;10.70;;
24873;SDS011;12945;42.648;23.370;2022-08-21T04:35:36;22.70;;;10.73;;
24873;SDS011;12945;42.648;23.370;2022-08-21T04:38:01;17.42;;;10.13;;
24873;SDS011;12945;42.648;23.370;2022-08-21T04:40:27;23.63;;;11.07;;
24873;SDS011;12945;42.648;23.370;2022-08-21T04:42:54;21.95;;;9.93;;
24873;SDS011;12945;42.648;23.370;2022-08-21T04:45:24;15.82;;;10.07;;
24873;SDS011;12945;42.648;23.370;2022-08-21T04:47:50;18.17;;;9.20;;
24873;SDS011;12945;42.648;23.370;2022-08-21T04:50:16;21.27;;;9.02;;
24873;SDS011;12945;42.648;23.370;2022-08-21T04:52:42;16.00;;;8.05;;
24873;SDS011;12945;42.648;23.370;2022-08-21T04:55:07;12.25;;;7.30;;
24873;SDS011;12945;42.648;23.370;2022-08-21T04:57:33;16.67;;;6.43;;
24873;SDS011;12945;42.648;23.370;2022-08-21T04:59:59;10.80;;;6.63;;
24873;SDS011;12945;42.648;23.370;2022-08-21T05:02:25;16.58;;;6.35;;
24873;SDS011;12945;42.648;23.370;2022-08-21T05:04:51;13.55;;;5.40;;
24873;SDS011;12945;42.648;23.370;2022-08-21T05:07:25;23.42;;;5.43;;
24873;SDS011;12945;42.648;23.370;2022-08-21T05:09:51;15.63;;;5.43;;
24873;SDS011;12945;42.648;23.370;2022-08-21T05:12:17;15.20;;;4.93;;
24873;SDS011;12945;42.648;23.370;2022-08-21T05:14:42;17.23;;;4.28;;
24873;SDS011;12945;42.648;23.370;2022-08-21T05:17:08;12.35;;;5.60;;
24873;SDS011;12945;42.648;23.370;2022-08-21T05:19:33;7.68;;;4.80;;
24873;SDS011;12945;42.648;23.370;2022-08-21T05:21:59;12.85;;;5.10;;
24873;SDS011;12945;42.648;23.370;2022-08-21T05:24:25;14.18;;;5.00;;
24873;SDS011;12945;42.648;23.370;2022-08-21T05:26:51;9.32;;;4.35;;
24873;SDS011;12945;42.648;23.370;2022-08-21T05:29:16;11.75;;;4.25;;
24873;SDS011;12945;42.648;23.370;2022-08-21T05:31:42;13.32;;;5.18;;
24873;SDS011;12945;42.648;23.370;2022-08-21T05:34:07;13.95;;;4.85;;
24873;SDS011;12945;42.648;23.370;2022-08-21T05:36:33;15.75;;;5.35;;
24873;SDS011;12945;42.648;23.370;2022-08-21T05:38:58;7.82;;;5.05;;
24873;SDS011;12945;42.648;23.370;2022-08-21T05:41:24;9.07;;;5.10;;
24873;SDS011;12945;42.648;23.370;2022-08-21T05:43:49;14.20;;;5.07;;
24873;SDS011;12945;42.648;23.370;2022-08-21T05:46:14;11.18;;;4.85;;
24873;SDS011;12945;42.648;23.370;2022-08-21T05:48:39;8.40;;;4.00;;
24873;SDS011;12945;42.648;23.370;2022-08-21T05:51:06;12.50;;;4.60;;
24873;SDS011;12945;42.648;23.370;2022-08-21T05:53:31;8.73;;;4.15;;
24873;SDS011;12945;42.648;23.370;2022-08-21T05:55:57;13.43;;;5.18;;
24873;SDS011;12945;42.648;23.370;2022-08-21T05:58:22;11.98;;;6.38;;
24873;SDS011;12945;42.648;23.370;2022-08-21T06:00:48;15.65;;;5.53;;
24873;SDS011;12945;42.648;23.370;2022-08-21T06:03:15;12.20;;;5.78;;
24873;SDS011;12945;42.648;23.370;2022-08-21T06:05:42;21.55;;;7.18;;
24873;SDS011;12945;42.648;23.370;2022-08-21T06:08:07;12.93;;;6.78;;
24873;SDS011;12945;42.648;23.370;2022-08-21T06:10:33;14.48;;;6.70;;
24873;SDS011;12945;42.648;23.370;2022-08-21T06:12:58;12.85;;;6.47;;
24873;SDS011;12945;42.648;23.370;2022-08-21T06:15:23;12.43;;;6.65;;
24873;SDS011;12945;42.648;23.370;2022-08-21T06:17:49;13.93;;;7.70;;
24873;SDS011;12945;42.648;23.370;2022-08-21T06:20:14;16.38;;;8.00;;
24873;SDS011;12945;42.648;23.370;2022-08-21T06:22:39;17.38;;;8.15;;
24873;SDS011;12945;42.648;23.370;2022-08-21T06:25:05;12.88;;;8.07;;
24873;SDS011;12945;42.648;23.370;2022-08-21T06:27:30;18.15;;;9.25;;
24873;SDS011;12945;42.648;23.370;2022-08-21T06:29:55;15.70;;;9.60;;
24873;SDS011;12945;42.648;23.370;2022-08-21T06:32:22;15.70;;;9.43;;
24873;SDS011;12945;42.648;23.370;2022-08-21T06:34:47;16.75;;;9.25;;
24873;SDS011;12945;42.648;23.370;2022-08-21T06:37:13;19.27;;;9.15;;
24873;SDS011;12945;42.648;23.370;2022-08-21T06:39:42;16.75;;;9.57;;
24873;SDS011;12945;42.648;23.370;2022-08-21T06:42:15;14.43;;;9.23;;
24873;SDS011;12945;42.648;23.370;2022-08-21T06:44:41;14.02;;;8.75;;
24873;SDS011;12945;42.648;23.370;2022-08-21T06:47:06;18.23;;;9.10;;
24873;SDS011;12945;42.648;23.370;2022-08-21T06:49:31;17.58;;;7.68;;
24873;SDS011;12945;42.648;23.370;2022-08-21T06:51:57;17.98;;;7.20;;
24873;SDS011;12945;42.648;23.370;2022-08-21T06:54:22;17.00;;;7.80;;
24873;SDS011;12945;42.648;23.370;2022-08-21T06:56:47;19.25;;;8.15;;
24873;SDS011;12945;42.648;23.370;2022-08-21T06:59:13;17.95;;;7.32;;
24873;SDS011;12945;42.648;23.370;2022-08-21T07:01:38;15.85;;;6.38;;
24873;SDS011;12945;42.648;23.370;2022-08-21T07:04:04;16.88;;;7.72;;
24873;SDS011;12945;42.648;23.370;2022-08-21T07:06:29;12.23;;;7.15;;
24873;SDS011;12945;42.648;23.370;2022-08-21T07:08:55;11.00;;;6.50;;
24873;SDS011;12945;42.648;23.370;2022-08-21T07:11:21;12.70;;;6.43;;
24873;SDS011;12945;42.648;23.370;2022-08-21T07:13:47;14.48;;;6.75;;
24873;SDS011;12945;42.648;23.370;2022-08-21T07:16:13;13.00;;;6.45;;
24873;SDS011;12945;42.648;23.370;2022-08-21T07:18:38;15.68;;;6.60;;
24873;SDS011;12945;42.648;23.370;2022-08-21T07:21:04;11.80;;;6.47;;
24873;SDS011;12945;42.648;23.370;2022-08-21T07:23:31;15.70;;;8.18;;
24873;SDS011;12945;42.648;23.370;2022-08-21T07:25:57;15.15;;;7.85;;
24873;SDS011;12945;42.648;23.370;2022-08-21T07:28:25;15.80;;;7.43;;
24873;SDS011;12945;42.648;23.370;2022-08-21T07:30:51;18.42;;;8.38;;
24873;SDS011;12945;42.648;23.370;2022-08-21T07:33:17;14.07;;;7.15;;
24873;SDS011;12945;42.648;23.370;2022-08-21T07:35:42;20.20;;;7.15;;
24873;SDS011;12945;42.648;23.370;2022-08-21T07:38:07;15.75;;;7.38;;
24873;SDS011;12945;42.648;23.370;2022-08-21T07:40:33;14.35;;;7.15;;
24873;SDS011;12945;42.648;23.370;2022-08-21T07:42:58;16.02;;;10.52;;
24873;SDS011;12945;42.648;23.370;2022-08-21T07:45:23;17.95;;;7.80;;
24873;SDS011;12945;42.648;23.370;2022-08-21T07:47:52;14.40;;;7.60;;
24873;SDS011;12945;42.648;23.370;2022-08-21T07:50:17;11.25;;;7.03;;
24873;SDS011;12945;42.648;23.370;2022-08-21T07:52:43;13.07;;;7.50;;
24873;SDS011;12945;42.648;23.370;2022-08-21T07:55:13;13.98;;;7.53;;
24873;SDS011;12945;42.648;23.370;2022-08-21T07:57:39;15.23;;;7.55;;
24873;SDS011;12945;42.648;23.370;2022-08-21T08:00:05;19.50;;;8.68;;
24873;SDS011;12945;42.648;23.370;2022-08-21T08:02:31;18.38;;;7.15;;
24873;SDS011;12945;42.648;23.370;2022-08-21T08:05:00;22.60;;;7.82;;
24873;SDS011;12945;42.648;23.370;2022-08-21T08:07:26;18.48;;;7.40;;
24873;SDS011;12945;42.648;23.370;2022-08-21T08:09:51;17.20;;;7.47;;
24873;SDS011;12945;42.648;23.370;2022-08-21T08:12:16;15.60;;;8.00;;
24873;SDS011;12945;42.648;23.370;2022-08-21T08:14:41;19.27;;;7.75;;
24873;SDS011;12945;42.648;23.370;2022-08-21T08:17:07;13.30;;;7.13;;
24873;SDS011;12945;42.648;23.370;2022-08-21T08:19:33;11.50;;;6.70;;
24873;SDS011;12945;42.648;23.370;2022-08-21T08:21:58;16.50;;;7.68;;
24873;SDS011;12945;42.648;23.370;2022-08-21T08:24:23;15.25;;;8.35;;
24873;SDS011;12945;42.648;23.370;2022-08-21T08:26:49;16.08;;;7.47;;
24873;SDS011;12945;42.648;23.370;2022-08-21T08:29:14;21.48;;;7.75;;
24873;SDS011;12945;42.648;23.370;2022-08-21T08:31:40;13.98;;;7.45;;
24873;SDS011;12945;42.648;23.370;2022-08-21T08:34:05;18.38;;;8.38;;
24873;SDS011;12945;42.648;23.370;2022-08-21T08:36:32;16.48;;;9.13;;
24873;SDS011;12945;42.648;23.370;2022-08-21T08:38:57;17.45;;;9.13;;
24873;SDS011;12945;42.648;23.370;2022-08-21T08:41:23;20.00;;;8.68;;
24873;SDS011;12945;42.648;23.370;2022-08-21T08:43:53;16.77;;;8.27;;
24873;SDS011;12945;42.648;23.370;2022-08-21T08:48:55;19.35;;;8.00;;
24873;SDS011;12945;42.648;23.370;2022-08-21T08:54:00;16.90;;;8.07;;
24873;SDS011;12945;42.648;23.370;2022-08-21T08:56:29;15.55;;;7.35;;
24873;SDS011;12945;42.648;23.370;2022-08-21T08:58:56;12.68;;;6.95;;
24873;SDS011;12945;42.648;23.370;2022-08-21T09:01:26;14.68;;;8.52;;
24873;SDS011;12945;42.648;23.370;2022-08-21T09:03:55;13.40;;;7.57;;
24873;SDS011;12945;42.648;23.370;2022-08-21T09:06:26;18.55;;;7.65;;
24873;SDS011;12945;42.648;23.370;2022-08-21T09:12:04;15.90;;;8.02;;
24873;SDS011;12945;42.648;23.370;2022-08-21T09:15:19;14.27;;;8.25;;
24873;SDS011;12945;42.648;23.370;2022-08-21T09:22:48;15.68;;;7.70;;
24873;SDS011;12945;42.648;23.370;2022-08-21T09:25:31;13.93;;;6.50;;
24873;SDS011;12945;42.648;23.370;2022-08-21T09:27:57;17.30;;;6.35;;
24873;SDS011;12945;42.648;23.370;2022-08-21T09:30:27;17.60;;;7.28;;
24873;SDS011;12945;42.648;23.370;2022-08-21T09:32:53;20.15;;;6.50;;
24873;SDS011;12945;42.648;23.370;2022-08-21T09:35:19;18.35;;;7.45;;
24873;SDS011;12945;42.648;23.370;2022-08-21T09:40:55;14.52;;;6.80;;
24873;SDS011;12945;42.648;23.370;2022-08-21T09:43:01;16.27;;;7.15;;
24873;SDS011;12945;42.648;23.370;2022-08-21T09:45:27;13.35;;;6.30;;
24873;SDS011;12945;42.648;23.370;2022-08-21T09:47:52;19.80;;;7.10;;
24873;SDS011;12945;42.648;23.370;2022-08-21T09:50:20;10.60;;;6.07;;
24873;SDS011;12945;42.648;23.370;2022-08-21T09:52:54;13.18;;;7.03;;
24873;SDS011;12945;42.648;23.370;2022-08-21T09:55:23;16.90;;;7.22;;
24873;SDS011;12945;42.648;23.370;2022-08-21T09:58:07;12.73;;;6.72;;
24873;SDS011;12945;42.648;23.370;2022-08-21T10:00:34;18.90;;;6.65;;
24873;SDS011;12945;42.648;23.370;2022-08-21T10:05:37;12.98;;;6.00;;
24873;SDS011;12945;42.648;23.370;2022-08-21T10:08:02;11.57;;;6.47;;
24873;SDS011;12945;42.648;23.370;2022-08-21T10:10:30;12.98;;;5.90;;
24873;SDS011;12945;42.648;23.370;2022-08-21T10:13:00;12.18;;;6.05;;
24873;SDS011;12945;42.648;23.370;2022-08-21T10:20:22;13.35;;;7.10;;
24873;SDS011;12945;42.648;23.370;2022-08-21T10:25:26;17.77;;;6.00;;
24873;SDS011;12945;42.648;23.370;2022-08-21T10:28:13;11.75;;;5.70;;
24873;SDS011;12945;42.648;23.370;2022-08-21T10:35:43;16.63;;;6.53;;
24873;SDS011;12945;42.648;23.370;2022-08-21T10:49:22;13.95;;;5.88;;
24873;SDS011;12945;42.648;23.370;2022-08-21T10:51:54;13.68;;;6.47;;
24873;SDS011;12945;42.648;23.370;2022-08-21T10:54:25;13.65;;;6.35;;
24873;SDS011;12945;42.648;23.370;2022-08-21T10:56:56;16.13;;;5.38;;
24873;SDS011;12945;42.648;23.370;2022-08-21T11:06:53;14.07;;;5.82;;
24873;SDS011;12945;42.648;23.370;2022-08-21T11:09:24;10.07;;;4.85;;
24873;SDS011;12945;42.648;23.370;2022-08-21T11:11:58;10.73;;;5.03;;
24873;SDS011;12945;42.648;23.370;2022-08-21T11:19:42;12.98;;;5.38;;
24873;SDS011;12945;42.648;23.370;2022-08-21T11:22:15;13.55;;;5.45;;
24873;SDS011;12945;42.648;23.370;2022-08-21T11:24:50;8.65;;;4.47;;
24873;SDS011;12945;42.648;23.370;2022-08-21T11:27:23;9.40;;;4.60;;
24873;SDS011;12945;42.648;23.370;2022-08-21T11:29:54;12.27;;;4.50;;
24873;SDS011;12945;42.648;23.370;2022-08-21T11:40:34;12.50;;;4.60;;
24873;SDS011;12945;42.648;23.370;2022-08-21T11:43:05;11.55;;;4.47;;
24873;SDS011;12945;42.648;23.370;2022-08-21T11:48:08;10.35;;;4.82;;
24873;SDS011;12945;42.648;23.370;2022-08-21T11:50:37;9.30;;;4.95;;
24873;SDS011;12945;42.648;23.370;2022-08-21T11:53:13;11.05;;;4.55;;
24873;SDS011;12945;42.648;23.370;2022-08-21T11:58:14;8.20;;;4.75;;
24873;SDS011;12945;42.648;23.370;2022-08-21T12:03:08;8.60;;;4.97;;
24873;SDS011;12945;42.648;23.370;2022-08-21T12:05:40;10.18;;;4.57;;
24873;SDS011;12945;42.648;23.370;2022-08-21T12:08:12;10.50;;;4.82;;
24873;SDS011;12945;42.648;23.370;2022-08-21T12:10:40;8.55;;;4.65;;
24873;SDS011;12945;42.648;23.370;2022-08-21T12:13:10;12.10;;;5.18;;
24873;SDS011;12945;42.648;23.370;2022-08-21T12:15:37;11.68;;;5.53;;
24873;SDS011;12945;42.648;23.370;2022-08-21T12:18:03;11.15;;;5.15;;
24873;SDS011;12945;42.648;23.370;2022-08-21T12:23:02;10.67;;;5.27;;
24873;SDS011;12945;42.648;23.370;2022-08-21T12:25:35;12.20;;;5.35;;
24873;SDS011;12945;42.648;23.370;2022-08-21T12:28:02;12.52;;;5.75;;
24873;SDS011;12945;42.648;23.370;2022-08-21T12:30:35;12.57;;;6.07;;
24873;SDS011;12945;42.648;23.370;2022-08-21T12:38:02;14.57;;;6.30;;
24873;SDS011;12945;42.648;23.370;2022-08-21T12:40:40;16.55;;;5.63;;
24873;SDS011;12945;42.648;23.370;2022-08-21T12:43:11;12.23;;;5.50;;
24873;SDS011;12945;42.648;23.370;2022-08-21T12:45:45;10.35;;;5.15;;
24873;SDS011;12945;42.648;23.370;2022-08-21T12:50:50;9.30;;;5.05;;
24873;SDS011;12945;42.648;23.370;2022-08-21T12:55:44;9.75;;;5.38;;
24873;SDS011;12945;42.648;23.370;2022-08-21T12:58:22;17.95;;;5.70;;
24873;SDS011;12945;42.648;23.370;2022-08-21T13:01:31;12.50;;;5.40;;
24873;SDS011;12945;42.648;23.370;2022-08-21T13:03:36;12.73;;;5.40;;
24873;SDS011;12945;42.648;23.370;2022-08-21T13:06:05;15.15;;;5.93;;
24873;SDS011;12945;42.648;23.370;2022-08-21T13:08:31;14.05;;;5.30;;
24873;SDS011;12945;42.648;23.370;2022-08-21T13:11:02;14.43;;;5.38;;
24873;SDS011;12945;42.648;23.370;2022-08-21T13:13:28;12.48;;;5.18;;
24873;SDS011;12945;42.648;23.370;2022-08-21T13:15:58;14.18;;;5.43;;
24873;SDS011;12945;42.648;23.370;2022-08-21T13:18:25;11.88;;;5.20;;
24873;SDS011;12945;42.648;23.370;2022-08-21T13:20:51;10.35;;;5.40;;
24873;SDS011;12945;42.648;23.370;2022-08-21T13:23:23;14.32;;;5.43;;
24873;SDS011;12945;42.648;23.370;2022-08-21T13:25:48;13.88;;;5.57;;
24873;SDS011;12945;42.648;23.370;2022-08-21T13:28:14;9.85;;;5.18;;
24873;SDS011;12945;42.648;23.370;2022-08-21T13:30:44;13.23;;;5.85;;
24873;SDS011;12945;42.648;23.370;2022-08-21T13:33:10;11.68;;;5.55;;
24873;SDS011;12945;42.648;23.370;2022-08-21T13:35:51;17.58;;;6.00;;
24873;SDS011;12945;42.648;23.370;2022-08-21T13:38:17;13.60;;;6.05;;
24873;SDS011;12945;42.648;23.370;2022-08-21T13:43:17;11.70;;;5.60;;
24873;SDS011;12945;42.648;23.370;2022-08-21T13:45:44;12.90;;;6.20;;
24873;SDS011;12945;42.648;23.370;2022-08-21T13:48:12;16.08;;;6.38;;
24873;SDS011;12945;42.648;23.370;2022-08-21T13:50:38;15.65;;;6.15;;
24873;SDS011;12945;42.648;23.370;2022-08-21T13:53:05;17.10;;;6.63;;
24873;SDS011;12945;42.648;23.370;2022-08-21T13:55:40;11.93;;;5.45;;
24873;SDS011;12945;42.648;23.370;2022-08-21T13:58:07;12.55;;;5.53;;
24873;SDS011;12945;42.648;23.370;2022-08-21T14:00:34;16.17;;;6.68;;
24873;SDS011;12945;42.648;23.370;2022-08-21T14:03:03;13.25;;;5.80;;
24873;SDS011;12945;42.648;23.370;2022-08-21T14:05:30;14.13;;;7.07;;
24873;SDS011;12945;42.648;23.370;2022-08-21T14:08:08;10.25;;;6.13;;
24873;SDS011;12945;42.648;23.370;2022-08-21T14:10:36;15.30;;;6.45;;
24873;SDS011;12945;42.648;23.370;2022-08-21T14:13:03;14.93;;;6.18;;
24873;SDS011;12945;42.648;23.370;2022-08-21T14:15:30;12.30;;;6.10;;
24873;SDS011;12945;42.648;23.370;2022-08-21T14:18:12;14.35;;;6.43;;
24873;SDS011;12945;42.648;23.370;2022-08-21T14:20:38;14.10;;;6.25;;
24873;SDS011;12945;42.648;23.370;2022-08-21T14:23:03;13.05;;;6.10;;
24873;SDS011;12945;42.648;23.370;2022-08-21T14:25:30;16.92;;;6.47;;
24873;SDS011;12945;42.648;23.370;2022-08-21T14:30:27;16.43;;;6.33;;
24873;SDS011;12945;42.648;23.370;2022-08-21T14:32:53;13.00;;;6.43;;
24873;SDS011;12945;42.648;23.370;2022-08-21T14:35:19;13.95;;;6.22;;
24873;SDS011;12945;42.648;23.370;2022-08-21T14:37:46;13.52;;;5.80;;
24873;SDS011;12945;42.648;23.370;2022-08-21T14:40:12;13.88;;;6.05;;
24873;SDS011;12945;42.648;23.370;2022-08-21T14:42:38;10.10;;;6.28;;
24873;SDS011;12945;42.648;23.370;2022-08-21T14:45:07;11.65;;;5.50;;
24873;SDS011;12945;42.648;23.370;2022-08-21T14:47:33;12.25;;;5.65;;
24873;SDS011;12945;42.648;23.370;2022-08-21T14:49:58;17.58;;;6.32;;
24873;SDS011;12945;42.648;23.370;2022-08-21T14:52:23;14.80;;;5.60;;
24873;SDS011;12945;42.648;23.370;2022-08-21T14:54:49;13.88;;;5.50;;
24873;SDS011;12945;42.648;23.370;2022-08-21T14:57:14;12.43;;;6.05;;
24873;SDS011;12945;42.648;23.370;2022-08-21T14:59:40;10.75;;;6.18;;
24873;SDS011;12945;42.648;23.370;2022-08-21T15:02:06;12.43;;;6.53;;
24873;SDS011;12945;42.648;23.370;2022-08-21T15:04:32;13.05;;;6.03;;
24873;SDS011;12945;42.648;23.370;2022-08-21T15:06:58;14.85;;;5.95;;
24873;SDS011;12945;42.648;23.370;2022-08-21T15:09:23;11.00;;;6.32;;
24873;SDS011;12945;42.648;23.370;2022-08-21T15:11:49;10.95;;;5.60;;
24873;SDS011;12945;42.648;23.370;2022-08-21T15:14:19;10.00;;;5.88;;
24873;SDS011;12945;42.648;23.370;2022-08-21T15:16:44;16.27;;;7.20;;
24873;SDS011;12945;42.648;23.370;2022-08-21T15:19:10;12.75;;;5.88;;
24873;SDS011;12945;42.648;23.370;2022-08-21T15:21:35;9.75;;;5.82;;
24873;SDS011;12945;42.648;23.370;2022-08-21T15:24:01;12.40;;;5.60;;
24873;SDS011;12945;42.648;23.370;2022-08-21T15:26:26;14.43;;;6.55;;
24873;SDS011;12945;42.648;23.370;2022-08-21T15:28:51;13.95;;;6.28;;
24873;SDS011;12945;42.648;23.370;2022-08-21T15:31:17;12.38;;;5.80;;
24873;SDS011;12945;42.648;23.370;2022-08-21T15:33:42;9.55;;;5.85;;
24873;SDS011;12945;42.648;23.370;2022-08-21T15:36:07;13.07;;;6.53;;
24873;SDS011;12945;42.648;23.370;2022-08-21T15:38:33;11.18;;;6.07;;
24873;SDS011;12945;42.648;23.370;2022-08-21T15:40:58;10.77;;;6.45;;
24873;SDS011;12945;42.648;23.370;2022-08-21T15:43:28;20.73;;;6.60;;
24873;SDS011;12945;42.648;23.370;2022-08-21T15:45:54;9.85;;;6.22;;
24873;SDS011;12945;42.648;23.370;2022-08-21T15:48:19;10.35;;;6.18;;